createdAt,value
2019-06-10T00:00:41.987Z,53.98
2019-06-10T00:03:12.062Z,53.40
2019-06-10T00:05:43.094Z,53.83
2019-06-10T00:08:14.277Z,53.99
2019-06-10T00:10:45.401Z,53.81
2019-06-10T00:13:20.759Z,54.10
2019-06-10T00:15:51.788Z,54.27
2019-06-10T00:18:38.723Z,53.37
2019-06-10T00:20:55.501Z,54.46
2019-06-10T00:23:26.538Z,53.94
2019-06-10T00:25:57.913Z,53.92
2019-06-10T00:28:30.975Z,53.79
2019-06-10T00:31:03.696Z,53.24
2019-06-10T00:33:34.297Z,54.34
2019-06-10T00:36:08.626Z,54.50
2019-06-10T00:38:41.197Z,54.57
2019-06-10T00:41:14.160Z,54.49
2019-06-10T00:43:44.663Z,54.27
2019-06-10T00:46:15.797Z,53.80
2019-06-10T00:48:46.804Z,53.96
2019-06-10T00:51:17.880Z,53.98
2019-06-10T00:53:51.391Z,53.52
2019-06-10T00:56:22.459Z,54.86
2019-06-10T00:58:53.475Z,54.99
2019-06-10T01:01:24.645Z,55.00
2019-06-10T01:03:55.714Z,53.81
2019-06-10T01:06:26.839Z,54.63
2019-06-10T01:09:00.511Z,54.50
2019-06-10T01:14:21.670Z,54.71
2019-06-10T01:16:53.369Z,54.82
2019-06-10T01:19:24.359Z,55.08
2019-06-10T01:21:55.402Z,53.80
2019-06-10T01:24:26.441Z,54.00
2019-06-10T01:26:57.501Z,54.18
2019-06-10T01:29:28.599Z,54.19
2019-06-10T01:32:01.584Z,54.57
2019-06-10T01:34:32.256Z,54.51
2019-06-10T01:37:03.312Z,54.90
2019-06-10T01:39:34.409Z,54.53
2019-06-10T01:42:06.467Z,54.64
2019-06-10T01:44:37.512Z,54.65
2019-06-10T01:47:08.703Z,55.31
2019-06-10T01:49:41.215Z,55.05
2019-06-10T01:52:15.090Z,54.19
2019-06-10T01:54:45.177Z,54.61
2019-06-10T01:57:17.060Z,55.15
2019-06-10T01:59:50.923Z,54.85
2019-06-10T02:02:24.647Z,54.06
2019-06-10T02:04:55.867Z,55.22
2019-06-10T02:07:26.967Z,54.12
2019-06-10T02:09:58.173Z,54.44
2019-06-10T02:12:31.487Z,54.52
2019-06-10T02:15:02.905Z,54.70
2019-06-10T02:17:33.958Z,54.39
2019-06-10T02:20:05.807Z,54.82
2019-06-10T02:22:36.869Z,54.66
2019-06-10T02:25:07.980Z,54.48
2019-06-10T02:27:41.351Z,54.67
2019-06-10T02:30:22.226Z,54.46
2019-06-10T02:32:44.534Z,55.86
2019-06-10T02:35:27.321Z,54.62
2019-06-10T02:37:48.280Z,54.72
2019-06-10T02:40:24.546Z,55.17
2019-06-10T02:42:54.066Z,55.32
2019-06-10T02:45:32.664Z,55.29
2019-06-10T02:47:58.728Z,55.89
2019-06-10T02:51:05.113Z,55.04
2019-06-10T02:53:37.154Z,55.76
2019-06-10T02:56:09.310Z,55.54
2019-06-10T02:58:44.666Z,55.67
2019-06-10T03:01:16.331Z,55.99
2019-06-10T03:03:49.528Z,56.91
2019-06-10T03:06:21.243Z,56.08
2019-06-10T03:08:54.726Z,57.29
2019-06-10T03:11:27.966Z,56.57
2019-06-10T03:13:57.836Z,57.05
2019-06-10T03:16:33.822Z,57.50
2019-06-10T03:19:06.091Z,56.66
2019-06-10T03:21:37.139Z,56.97
2019-06-10T03:24:08.102Z,57.56
2019-06-10T03:26:39.144Z,56.99
2019-06-10T03:29:12.935Z,56.96
2019-06-10T03:31:48.233Z,57.27
2019-06-10T03:34:18.093Z,57.63
2019-06-10T03:36:49.680Z,57.22
2019-06-10T03:39:21.399Z,57.65
2019-06-10T03:41:53.245Z,57.84
2019-06-10T03:44:26.370Z,57.78
2019-06-10T03:46:59.653Z,58.10
2019-06-10T03:49:32.155Z,58.81
2019-06-10T03:52:03.241Z,58.11
2019-06-10T03:54:34.333Z,58.13
2019-06-10T03:57:06.258Z,58.19
2019-06-10T03:59:37.310Z,58.72
2019-06-10T04:02:08.242Z,58.92
2019-06-10T04:04:39.422Z,58.71
2019-06-10T04:07:14.098Z,58.57
2019-06-10T04:09:43.409Z,58.44
2019-06-10T04:12:14.524Z,57.97
2019-06-10T04:14:45.651Z,57.32
2019-06-10T04:17:17.540Z,58.30
2019-06-10T04:20:02.658Z,57.89
2019-06-10T04:22:22.662Z,58.67
2019-06-10T04:24:54.272Z,58.30
2019-06-10T04:27:26.744Z,59.09
2019-06-10T04:29:58.708Z,58.87
2019-06-10T04:32:32.125Z,58.83
2019-06-10T04:35:02.843Z,59.05
2019-06-10T04:37:33.942Z,58.81
2019-06-10T04:40:06.851Z,58.82
2019-06-10T04:42:38.030Z,58.46
2019-06-10T04:45:09.067Z,59.25
2019-06-10T04:47:40.084Z,59.47
2019-06-10T04:50:23.606Z,58.88
2019-06-10T04:52:43.863Z,58.90
2019-06-10T04:55:14.933Z,58.59
2019-06-10T04:57:46.121Z,58.56
2019-06-10T05:00:17.162Z,58.43
2019-06-10T05:02:48.150Z,57.85
2019-06-10T05:05:19.154Z,59.18
2019-06-10T05:07:52.063Z,58.49
2019-06-10T05:10:24.104Z,58.79
2019-06-10T05:12:55.861Z,58.44
2019-06-10T05:15:28.415Z,58.24
2019-06-10T05:18:00.065Z,58.75
2019-06-10T05:20:51.209Z,57.95
2019-06-10T05:23:06.321Z,57.52
2019-06-10T05:25:37.330Z,57.86
2019-06-10T05:28:08.279Z,57.94
2019-06-10T05:30:39.282Z,57.41
2019-06-10T05:33:10.331Z,57.84
2019-06-10T05:35:42.676Z,58.29
2019-06-10T05:38:13.689Z,58.03
2019-06-10T05:40:44.786Z,58.27
2019-06-10T05:43:15.830Z,58.58
2019-06-10T05:45:46.985Z,57.52
2019-06-10T05:48:18.027Z,57.72
2019-06-10T05:51:00.181Z,57.33
2019-06-10T05:53:23.043Z,56.62
2019-06-10T05:55:54.647Z,57.14
2019-06-10T05:58:26.515Z,56.66
2019-06-10T06:00:58.519Z,56.49
2019-06-10T06:03:29.939Z,56.09
2019-06-10T06:06:03.169Z,55.64
2019-06-10T06:08:35.487Z,55.74
2019-06-10T06:11:07.126Z,55.79
2019-06-10T06:13:38.151Z,54.72
2019-06-10T06:16:12.566Z,54.06
2019-06-10T06:19:33.129Z,55.28
2019-06-10T06:22:12.944Z,54.81
2019-06-10T06:24:44.101Z,54.42
2019-06-10T06:27:19.411Z,54.75
2019-06-10T06:29:52.471Z,54.76
2019-06-10T06:32:23.710Z,54.06
2019-06-10T06:34:54.933Z,54.20
2019-06-10T06:37:26.871Z,54.67
2019-06-10T06:39:57.984Z,54.19
2019-06-10T06:42:29.396Z,54.51
2019-06-10T06:45:02.840Z,54.30
2019-06-10T06:50:34.322Z,53.58
2019-06-10T06:53:30.127Z,54.07
2019-06-10T06:55:39.827Z,53.58
2019-06-10T06:58:15.590Z,53.48
2019-06-10T07:01:03.721Z,53.94
2019-06-10T07:10:56.486Z,53.85
2019-06-10T07:13:27.916Z,53.74
2019-06-10T07:15:59.124Z,52.21
2019-06-10T07:18:49.544Z,52.20
2019-06-10T07:21:16.393Z,51.11
2019-06-10T07:23:47.455Z,52.29
2019-06-10T07:26:18.444Z,55.70
2019-06-10T07:28:49.533Z,52.63
2019-06-10T07:31:24.862Z,51.40
2019-06-10T07:33:53.285Z,51.20
2019-06-10T07:36:26.063Z,51.21
2019-06-10T07:38:57.186Z,51.38
2019-06-10T07:46:34.629Z,50.62
2019-06-10T07:49:19.215Z,50.37
2019-06-10T07:51:52.300Z,51.47
2019-06-10T07:56:53.756Z,50.48
2019-06-10T08:02:12.510Z,50.68
2019-06-10T08:04:55.331Z,50.55
2019-06-10T08:07:43.686Z,50.60
2019-06-10T08:14:27.692Z,48.88
2019-06-10T08:21:29.478Z,47.05
2019-06-10T08:27:05.787Z,45.25
2019-06-10T08:30:18.634Z,46.57
2019-06-10T08:32:53.319Z,46.89
2019-06-10T08:35:39.423Z,48.56
2019-06-10T08:38:05.722Z,48.71
2019-06-10T08:40:52.465Z,48.26
2019-06-10T08:49:14.153Z,46.45
2019-06-10T08:54:15.367Z,44.66
2019-06-10T08:59:19.792Z,43.82
2019-06-10T09:04:22.709Z,44.24
2019-06-10T09:09:23.871Z,44.75
2019-06-10T09:11:55.058Z,43.19
2019-06-10T09:14:26.877Z,44.46
2019-06-10T09:19:27.386Z,43.19
2019-06-10T09:24:27.399Z,42.41
2019-06-10T09:26:59.071Z,42.06
2019-06-10T09:29:32.934Z,40.51
2019-06-10T09:32:06.253Z,41.13
2019-06-10T09:34:35.295Z,40.42
2019-06-10T09:39:47.053Z,41.42
2019-06-10T09:42:18.982Z,43.03
2019-06-10T09:44:55.358Z,43.22
2019-06-10T09:52:26.396Z,44.06
2019-06-10T09:55:02.508Z,41.71
2019-06-10T09:57:34.131Z,41.58
2019-06-10T10:05:09.693Z,40.24
2019-06-10T10:10:12.676Z,38.05
2019-06-10T10:15:26.440Z,40.23
2019-06-10T10:20:18.445Z,41.49
2019-06-10T10:25:20.140Z,41.00
2019-06-10T10:27:57.266Z,43.55
2019-06-10T10:33:07.225Z,40.70
2019-06-10T10:35:38.396Z,41.17
2019-06-10T10:40:39.740Z,40.83
2019-06-10T10:45:43.558Z,41.28
2019-06-10T10:50:41.304Z,39.92
2019-06-10T10:55:42.537Z,37.45
2019-06-10T10:58:15.140Z,38.45
2019-06-10T11:03:18.673Z,40.52
2019-06-10T11:13:18.624Z,35.90
2019-06-10T11:15:49.646Z,35.91
2019-06-10T11:18:24.079Z,34.47
2019-06-10T11:20:55.238Z,35.73
2019-06-10T11:23:26.372Z,36.45
2019-06-10T11:25:58.899Z,35.83
2019-06-10T11:28:32.108Z,36.10
2019-06-10T11:31:03.863Z,34.64
2019-06-10T11:33:36.816Z,37.15
2019-06-10T11:36:07.857Z,35.34
2019-06-10T11:38:38.998Z,38.06
2019-06-10T11:41:10.032Z,35.90
2019-06-10T11:43:43.035Z,36.16
2019-06-10T11:46:16.195Z,37.92
2019-06-10T11:48:49.024Z,39.26
2019-06-10T11:51:20.203Z,37.36
2019-06-10T11:53:54.520Z,36.32
2019-06-10T11:56:24.082Z,36.43
2019-06-10T11:58:58.558Z,37.44
2019-06-10T12:01:28.947Z,36.20
2019-06-10T12:04:01.164Z,37.09
2019-06-10T12:06:33.968Z,38.45
2019-06-10T12:09:09.536Z,37.32
2019-06-10T12:11:43.478Z,37.37
2019-06-10T12:14:13.400Z,37.07
2019-06-10T12:17:17.490Z,37.38
2019-06-10T12:19:18.254Z,37.72
2019-06-10T12:21:49.841Z,38.24
2019-06-10T12:24:22.898Z,37.81
2019-06-10T12:26:55.507Z,37.59
2019-06-10T12:29:29.218Z,37.90
2019-06-10T12:34:33.260Z,38.40
2019-06-10T12:37:10.671Z,37.98
2019-06-10T12:42:10.980Z,38.96
2019-06-10T12:47:10.445Z,39.42
2019-06-10T12:52:14.482Z,38.53
2019-06-10T12:57:18.226Z,38.46
2019-06-10T13:02:24.729Z,38.66
2019-06-10T13:07:46.037Z,38.96
2019-06-10T13:10:42.976Z,39.67
2019-06-10T13:13:13.438Z,40.46
2019-06-10T13:15:44.542Z,39.81
2019-06-10T13:18:19.527Z,39.19
2019-06-10T13:20:49.883Z,40.07
2019-06-10T13:23:29.008Z,39.71
2019-06-10T13:26:03.200Z,40.24
2019-06-10T13:28:25.827Z,39.96
2019-06-10T13:30:57.086Z,40.59
2019-06-10T13:35:58.698Z,39.77
2019-06-10T13:40:59.743Z,39.54
2019-06-10T13:46:03.104Z,39.49
2019-06-10T13:51:10.104Z,39.95
2019-06-10T13:53:39.283Z,39.56
2019-06-10T13:58:39.200Z,38.94
2019-06-10T14:01:19.759Z,38.36
2019-06-10T14:03:45.055Z,39.29
2019-06-10T14:06:37.064Z,38.54
2019-06-10T14:11:26.861Z,39.76
2019-06-10T14:14:18.075Z,40.16
2019-06-10T14:16:48.445Z,40.12
2019-06-10T14:24:22.541Z,39.64
2019-06-10T14:29:26.330Z,40.17
2019-06-10T14:34:27.501Z,39.85
2019-06-10T14:39:32.945Z,39.77
2019-06-10T14:44:34.220Z,40.77
2019-06-10T14:47:13.119Z,40.92
2019-06-10T14:49:45.380Z,40.62
2019-06-10T14:52:19.863Z,40.44
2019-06-10T14:54:53.240Z,40.73
2019-06-10T14:57:28.791Z,40.67
2019-06-10T15:04:58.936Z,40.90
2019-06-10T15:10:03.415Z,40.81
2019-06-10T15:15:03.225Z,41.16
2019-06-10T15:20:05.941Z,42.10
2019-06-10T15:22:39.061Z,41.05
2019-06-10T15:25:13.775Z,41.37
2019-06-10T15:30:22.629Z,41.97
2019-06-10T15:35:19.593Z,41.36
2019-06-10T15:40:19.721Z,42.47
2019-06-10T15:45:22.691Z,42.16
2019-06-10T15:47:53.968Z,42.10
2019-06-10T15:50:27.770Z,42.85
2019-06-10T15:56:04.949Z,42.63
2019-06-10T16:00:37.070Z,44.72
2019-06-10T16:08:07.241Z,46.75
2019-06-10T16:15:38.621Z,49.94
2019-06-10T16:20:44.066Z,51.82
2019-06-10T16:23:19.877Z,54.93
2019-06-10T16:25:53.349Z,58.42
2019-06-10T16:28:29.357Z,63.98
2019-06-10T16:31:05.358Z,66.15
2019-06-10T16:36:27.552Z,61.03
2019-06-10T16:39:24.123Z,60.37
2019-06-10T16:47:32.542Z,62.57
2019-06-10T16:50:09.147Z,61.61
2019-06-10T16:57:58.807Z,60.87
2019-06-10T17:02:54.834Z,61.36
2019-06-10T17:05:33.755Z,61.85
2019-06-10T17:08:05.780Z,61.18
2019-06-10T17:13:12.863Z,64.84
2019-06-10T17:23:28.006Z,66.19
2019-06-10T17:28:36.653Z,64.51
2019-06-10T17:38:36.097Z,66.99
2019-06-10T17:41:08.806Z,69.73
2019-06-10T17:46:12.518Z,68.82
2019-06-10T17:51:12.632Z,67.61
2019-06-10T17:56:16.756Z,72.59
2019-06-10T18:01:22.222Z,71.78
2019-06-10T18:06:25.898Z,70.31
2019-06-10T18:11:29.849Z,69.63
2019-06-10T18:16:36.554Z,68.91
2019-06-10T18:19:09.794Z,66.99
2019-06-10T18:21:41.129Z,67.97
2019-06-10T18:24:15.985Z,67.47
2019-06-10T18:26:49.443Z,69.86
2019-06-10T18:29:25.636Z,69.62
2019-06-10T18:31:57.902Z,67.04
2019-06-10T18:34:38.524Z,69.25
2019-06-10T18:37:13.676Z,68.89
2019-06-10T18:39:45.908Z,67.41
2019-06-10T18:47:28.604Z,66.50
2019-06-10T18:54:58.057Z,66.41
2019-06-10T19:00:07.103Z,67.34
2019-06-10T19:05:07.963Z,72.37
2019-06-10T19:10:23.119Z,69.85
2019-06-10T19:15:23.135Z,68.20
2019-06-10T19:17:56.315Z,67.30
2019-06-10T19:25:37.263Z,67.44
2019-06-10T19:28:12.234Z,65.18
2019-06-10T19:30:44.870Z,65.18
2019-06-10T19:33:17.154Z,65.87
2019-06-10T19:35:48.638Z,65.56
2019-06-10T19:38:23.067Z,65.41
2019-06-10T19:40:52.687Z,66.47
2019-06-10T19:45:57.833Z,65.81
2019-06-10T19:51:00.020Z,68.53
2019-06-10T19:56:02.907Z,65.39
2019-06-10T20:01:12.750Z,66.19
2019-06-10T20:06:13.820Z,68.00
2019-06-10T20:14:06.636Z,68.81
